sensor_id;sensor_type;location;lat;lon;timestamp;temperature;humidity
26272;DHT22;13997;48.902;12.472;2023-10-13T00:02:07;384.50;2329.60
26272;DHT22;13997;48.902;12.472;2023-10-13T00:04:33;384.40;2329.60
26272;DHT22;13997;48.902;12.472;2023-10-13T00:07:02;384.40;2329.60
26272;DHT22;13997;48.902;12.472;2023-10-13T00:09:28;384.30;2329.60
26272;DHT22;13997;48.902;12.472;2023-10-13T00:12:01;384.30;2329.60
26272;DHT22;13997;48.902;12.472;2023-10-13T00:14:27;384.10;2329.60
26272;DHT22;13997;48.902;12.472;2023-10-13T00:17:03;384.10;2329.60
26272;DHT22;13997;48.902;12.472;2023-10-13T00:19:33;384.10;2329.60
26272;DHT22;13997;48.902;12.472;2023-10-13T00:22:12;384.10;2329.60
26272;DHT22;13997;48.902;12.472;2023-10-13T00:24:38;384.10;2329.60
26272;DHT22;13997;48.902;12.472;2023-10-13T00:27:20;384.10;2329.60
26272;DHT22;13997;48.902;12.472;2023-10-13T00:30:02;384.20;2329.60
26272;DHT22;13997;48.902;12.472;2023-10-13T00:32:41;384.20;2329.60
26272;DHT22;13997;48.902;12.472;2023-10-13T00:35:09;384.20;2329.60
26272;DHT22;13997;48.902;12.472;2023-10-13T00:37:37;384.20;2329.60
26272;DHT22;13997;48.902;12.472;2023-10-13T00:40:11;384.20;2329.60
26272;DHT22;13997;48.902;12.472;2023-10-13T00:42:58;384.20;2329.60
26272;DHT22;13997;48.902;12.472;2023-10-13T00:45:46;384.20;2329.60
26272;DHT22;13997;48.902;12.472;2023-10-13T00:48:27;384.20;2329.60
26272;DHT22;13997;48.902;12.472;2023-10-13T00:51:01;384.20;2329.60
26272;DHT22;13997;48.902;12.472;2023-10-13T00:53:37;384.20;2329.60
26272;DHT22;13997;48.902;12.472;2023-10-13T00:56:06;384.10;2329.60
26272;DHT22;13997;48.902;12.472;2023-10-13T00:58:45;384.20;2329.60
26272;DHT22;13997;48.902;12.472;2023-10-13T01:01:15;384.20;2329.60
26272;DHT22;13997;48.902;12.472;2023-10-13T01:03:51;384.10;2329.60
26272;DHT22;13997;48.902;12.472;2023-10-13T01:06:21;384.10;2329.60
26272;DHT22;13997;48.902;12.472;2023-10-13T01:09:03;384.10;2329.60
26272;DHT22;13997;48.902;12.472;2023-10-13T01:11:40;384.00;2329.60
26272;DHT22;13997;48.902;12.472;2023-10-13T01:14:08;359.30;2329.60
26272;DHT22;13997;48.902;12.472;2023-10-13T01:16:37;359.30;2329.60
26272;DHT22;13997;48.902;12.472;2023-10-13T01:19:09;384.00;2329.60
26272;DHT22;13997;48.902;12.472;2023-10-13T01:21:37;359.30;2329.60
26272;DHT22;13997;48.902;12.472;2023-10-13T01:24:06;359.30;2329.60
26272;DHT22;13997;48.902;12.472;2023-10-13T01:26:34;359.30;2329.60
26272;DHT22;13997;48.902;12.472;2023-10-13T01:29:05;359.30;2329.60
26272;DHT22;13997;48.902;12.472;2023-10-13T01:31:50;359.30;2329.60
26272;DHT22;13997;48.902;12.472;2023-10-13T01:34:18;359.20;2329.60
26272;DHT22;13997;48.902;12.472;2023-10-13T01:36:55;359.20;2329.60
26272;DHT22;13997;48.902;12.472;2023-10-13T01:39:24;359.20;2329.60
26272;DHT22;13997;48.902;12.472;2023-10-13T01:41:54;359.20;2329.60
26272;DHT22;13997;48.902;12.472;2023-10-13T01:44:26;359.20;2329.60
26272;DHT22;13997;48.902;12.472;2023-10-13T01:47:00;359.20;2329.60
26272;DHT22;13997;48.902;12.472;2023-10-13T01:49:34;359.20;2329.60
26272;DHT22;13997;48.902;12.472;2023-10-13T01:52:12;359.20;2329.60
26272;DHT22;13997;48.902;12.472;2023-10-13T01:54:50;359.10;2329.60
26272;DHT22;13997;48.902;12.472;2023-10-13T01:57:16;359.10;2329.60
26272;DHT22;13997;48.902;12.472;2023-10-13T01:59:49;359.10;2329.60
26272;DHT22;13997;48.902;12.472;2023-10-13T02:02:16;359.10;2329.60
26272;DHT22;13997;48.902;12.472;2023-10-13T02:04:54;359.10;2329.60
26272;DHT22;13997;48.902;12.472;2023-10-13T02:07:26;359.10;2329.60
26272;DHT22;13997;48.902;12.472;2023-10-13T02:10:00;359.00;2329.60
26272;DHT22;13997;48.902;12.472;2023-10-13T02:12:30;359.00;2329.60
26272;DHT22;13997;48.902;12.472;2023-10-13T02:15:16;359.00;2329.60
26272;DHT22;13997;48.902;12.472;2023-10-13T02:17:52;359.00;2329.60
26272;DHT22;13997;48.902;12.472;2023-10-13T02:20:20;359.00;2329.60
26272;DHT22;13997;48.902;12.472;2023-10-13T02:22:48;358.90;2329.60
26272;DHT22;13997;48.902;12.472;2023-10-13T02:25:18;358.90;2329.60
26272;DHT22;13997;48.902;12.472;2023-10-13T02:28:01;358.90;2329.60
26272;DHT22;13997;48.902;12.472;2023-10-13T02:30:27;358.90;2329.60
26272;DHT22;13997;48.902;12.472;2023-10-13T02:32:52;358.90;2329.60
26272;DHT22;13997;48.902;12.472;2023-10-13T02:35:19;358.90;2329.60
26272;DHT22;13997;48.902;12.472;2023-10-13T02:37:55;358.90;2329.60
26272;DHT22;13997;48.902;12.472;2023-10-13T02:40:22;358.90;2329.60
26272;DHT22;13997;48.902;12.472;2023-10-13T02:42:49;358.90;2329.60
26272;DHT22;13997;48.902;12.472;2023-10-13T02:45:14;358.90;2329.60
26272;DHT22;13997;48.902;12.472;2023-10-13T02:47:40;358.90;2329.60
26272;DHT22;13997;48.902;12.472;2023-10-13T02:50:09;358.90;2329.60
26272;DHT22;13997;48.902;12.472;2023-10-13T02:52:37;358.90;2329.60
26272;DHT22;13997;48.902;12.472;2023-10-13T02:55:07;358.80;2329.60
26272;DHT22;13997;48.902;12.472;2023-10-13T02:57:36;358.80;2329.60
26272;DHT22;13997;48.902;12.472;2023-10-13T03:00:01;358.80;2329.60
26272;DHT22;13997;48.902;12.472;2023-10-13T03:02:41;358.80;2329.60
26272;DHT22;13997;48.902;12.472;2023-10-13T03:05:12;358.80;2329.60
26272;DHT22;13997;48.902;12.472;2023-10-13T03:07:39;358.80;2329.60
26272;DHT22;13997;48.902;12.472;2023-10-13T03:10:08;358.80;2329.60
26272;DHT22;13997;48.902;12.472;2023-10-13T03:12:38;358.70;2329.60
26272;DHT22;13997;48.902;12.472;2023-10-13T03:15:05;358.70;2329.60
26272;DHT22;13997;48.902;12.472;2023-10-13T03:17:40;358.70;2329.60
26272;DHT22;13997;48.902;12.472;2023-10-13T03:20:16;358.70;2329.60
26272;DHT22;13997;48.902;12.472;2023-10-13T03:22:47;358.70;2329.60
26272;DHT22;13997;48.902;12.472;2023-10-13T03:25:17;358.60;2329.60
26272;DHT22;13997;48.902;12.472;2023-10-13T03:27:49;358.60;2329.60
26272;DHT22;13997;48.902;12.472;2023-10-13T03:30:19;358.60;2329.60
26272;DHT22;13997;48.902;12.472;2023-10-13T03:32:46;358.60;2329.60
26272;DHT22;13997;48.902;12.472;2023-10-13T03:35:15;358.60;2329.60
26272;DHT22;13997;48.902;12.472;2023-10-13T03:37:53;358.60;2329.60
26272;DHT22;13997;48.902;12.472;2023-10-13T03:40:20;358.60;2329.60
26272;DHT22;13997;48.902;12.472;2023-10-13T03:45:34;358.60;2329.60
26272;DHT22;13997;48.902;12.472;2023-10-13T03:48:04;358.50;2329.60
26272;DHT22;13997;48.902;12.472;2023-10-13T03:50:35;358.50;2329.60
26272;DHT22;13997;48.902;12.472;2023-10-13T03:53:02;358.50;2329.60
26272;DHT22;13997;48.902;12.472;2023-10-13T03:55:28;358.50;2329.60
26272;DHT22;13997;48.902;12.472;2023-10-13T03:57:55;358.50;2329.60
26272;DHT22;13997;48.902;12.472;2023-10-13T04:00:23;358.50;2329.60
26272;DHT22;13997;48.902;12.472;2023-10-13T04:02:51;358.50;2329.60
26272;DHT22;13997;48.902;12.472;2023-10-13T04:05:32;358.40;2329.60
26272;DHT22;13997;48.902;12.472;2023-10-13T04:08:07;358.40;2329.60
26272;DHT22;13997;48.902;12.472;2023-10-13T04:10:53;358.40;2329.60
26272;DHT22;13997;48.902;12.472;2023-10-13T04:13:19;333.70;2329.60
26272;DHT22;13997;48.902;12.472;2023-10-13T04:15:45;333.70;2329.60
26272;DHT22;13997;48.902;12.472;2023-10-13T04:18:29;333.70;2329.60
26272;DHT22;13997;48.902;12.472;2023-10-13T04:20:59;333.70;2329.60
26272;DHT22;13997;48.902;12.472;2023-10-13T04:23:33;333.70;2329.60
26272;DHT22;13997;48.902;12.472;2023-10-13T04:26:19;333.60;2329.60
26272;DHT22;13997;48.902;12.472;2023-10-13T04:28:47;333.60;2329.60
26272;DHT22;13997;48.902;12.472;2023-10-13T04:31:18;333.60;2329.60
26272;DHT22;13997;48.902;12.472;2023-10-13T04:34:09;333.70;2329.60
26272;DHT22;13997;48.902;12.472;2023-10-13T04:36:44;333.70;2329.60
26272;DHT22;13997;48.902;12.472;2023-10-13T04:39:21;333.60;2329.60
26272;DHT22;13997;48.902;12.472;2023-10-13T04:42:00;333.60;2329.60
26272;DHT22;13997;48.902;12.472;2023-10-13T04:44:38;333.60;2329.60
26272;DHT22;13997;48.902;12.472;2023-10-13T04:47:07;333.50;2329.60
26272;DHT22;13997;48.902;12.472;2023-10-13T04:49:38;333.50;2329.60
26272;DHT22;13997;48.902;12.472;2023-10-13T04:52:10;333.60;2329.60
26272;DHT22;13997;48.902;12.472;2023-10-13T04:54:42;333.60;2329.60
26272;DHT22;13997;48.902;12.472;2023-10-13T04:57:22;333.60;2329.60
26272;DHT22;13997;48.902;12.472;2023-10-13T04:59:51;333.60;2329.60
26272;DHT22;13997;48.902;12.472;2023-10-13T05:02:33;333.60;2329.60
26272;DHT22;13997;48.902;12.472;2023-10-13T05:05:08;333.70;2329.60
26272;DHT22;13997;48.902;12.472;2023-10-13T05:07:37;333.70;2329.60
26272;DHT22;13997;48.902;12.472;2023-10-13T05:10:22;333.70;2329.60
26272;DHT22;13997;48.902;12.472;2023-10-13T05:13:07;333.70;2329.60
26272;DHT22;13997;48.902;12.472;2023-10-13T05:15:51;333.70;2329.60
26272;DHT22;13997;48.902;12.472;2023-10-13T05:18:35;333.70;2329.60
26272;DHT22;13997;48.902;12.472;2023-10-13T05:21:20;333.70;2329.60
26272;DHT22;13997;48.902;12.472;2023-10-13T05:24:04;333.70;2329.60
26272;DHT22;13997;48.902;12.472;2023-10-13T05:26:49;333.70;2329.60
26272;DHT22;13997;48.902;12.472;2023-10-13T05:29:33;333.70;2329.60
26272;DHT22;13997;48.902;12.472;2023-10-13T05:32:17;333.70;2329.60
26272;DHT22;13997;48.902;12.472;2023-10-13T05:35:01;333.70;2329.60
26272;DHT22;13997;48.902;12.472;2023-10-13T05:37:45;333.70;2329.60
26272;DHT22;13997;48.902;12.472;2023-10-13T05:40:30;333.70;2329.60
26272;DHT22;13997;48.902;12.472;2023-10-13T05:43:14;333.70;2329.60
26272;DHT22;13997;48.902;12.472;2023-10-13T05:46:02;333.60;2329.60
26272;DHT22;13997;48.902;12.472;2023-10-13T05:48:57;333.70;2329.60
26272;DHT22;13997;48.902;12.472;2023-10-13T05:51:26;333.70;2329.60
26272;DHT22;13997;48.902;12.472;2023-10-13T05:53:57;333.70;2329.60
26272;DHT22;13997;48.902;12.472;2023-10-13T05:59:26;358.40;2329.60
26272;DHT22;13997;48.902;12.472;2023-10-13T06:02:11;358.40;2329.60
26272;DHT22;13997;48.902;12.472;2023-10-13T06:04:56;358.40;2329.60
26272;DHT22;13997;48.902;12.472;2023-10-13T06:07:40;358.50;2329.60
26272;DHT22;13997;48.902;12.472;2023-10-13T06:10:25;358.50;2329.60
26272;DHT22;13997;48.902;12.472;2023-10-13T06:13:09;358.40;2329.60
26272;DHT22;13997;48.902;12.472;2023-10-13T06:15:53;358.40;2329.60
26272;DHT22;13997;48.902;12.472;2023-10-13T06:18:37;358.40;2329.60
26272;DHT22;13997;48.902;12.472;2023-10-13T06:21:21;358.40;2329.60
26272;DHT22;13997;48.902;12.472;2023-10-13T06:24:07;358.40;2329.60
26272;DHT22;13997;48.902;12.472;2023-10-13T06:26:52;358.50;2329.60
26272;DHT22;13997;48.902;12.472;2023-10-13T06:29:36;358.40;2329.60
26272;DHT22;13997;48.902;12.472;2023-10-13T06:32:02;358.40;2329.60
26272;DHT22;13997;48.902;12.472;2023-10-13T06:34:36;358.40;2329.60
26272;DHT22;13997;48.902;12.472;2023-10-13T06:37:17;358.50;2329.60
26272;DHT22;13997;48.902;12.472;2023-10-13T06:39:50;358.50;2329.60
26272;DHT22;13997;48.902;12.472;2023-10-13T06:42:15;358.60;2329.60
26272;DHT22;13997;48.902;12.472;2023-10-13T06:44:42;358.70;2329.60
26272;DHT22;13997;48.902;12.472;2023-10-13T06:47:11;358.70;2329.60
26272;DHT22;13997;48.902;12.472;2023-10-13T06:49:39;358.70;2329.60
26272;DHT22;13997;48.902;12.472;2023-10-13T06:52:05;358.80;2329.60
26272;DHT22;13997;48.902;12.472;2023-10-13T06:54:32;358.80;2329.60
26272;DHT22;13997;48.902;12.472;2023-10-13T06:57:02;358.90;2329.60
26272;DHT22;13997;48.902;12.472;2023-10-13T06:59:32;358.90;2329.60
26272;DHT22;13997;48.902;12.472;2023-10-13T07:02:00;359.00;2329.60
26272;DHT22;13997;48.902;12.472;2023-10-13T07:04:32;359.00;2329.60
26272;DHT22;13997;48.902;12.472;2023-10-13T07:06:58;359.00;2329.60
26272;DHT22;13997;48.902;12.472;2023-10-13T07:09:26;359.10;2329.60
26272;DHT22;13997;48.902;12.472;2023-10-13T07:12:02;359.20;2329.60
26272;DHT22;13997;48.902;12.472;2023-10-13T07:14:50;359.20;2329.60
26272;DHT22;13997;48.902;12.472;2023-10-13T07:18:13;359.20;2329.60
26272;DHT22;13997;48.902;12.472;2023-10-13T07:20:41;359.30;2329.60
26272;DHT22;13997;48.902;12.472;2023-10-13T07:23:13;384.10;2329.60
26272;DHT22;13997;48.902;12.472;2023-10-13T07:25:56;384.10;2329.60
26272;DHT22;13997;48.902;12.472;2023-10-13T07:28:28;384.30;2329.60
26272;DHT22;13997;48.902;12.472;2023-10-13T07:30:56;384.30;2329.60
26272;DHT22;13997;48.902;12.472;2023-10-13T07:33:25;384.50;2329.60
26272;DHT22;13997;48.902;12.472;2023-10-13T07:36:07;384.60;2329.60
26272;DHT22;13997;48.902;12.472;2023-10-13T07:38:46;384.70;2329.60
26272;DHT22;13997;48.902;12.472;2023-10-13T07:41:14;384.70;2329.60
26272;DHT22;13997;48.902;12.472;2023-10-13T07:43:42;384.90;2329.60
26272;DHT22;13997;48.902;12.472;2023-10-13T07:46:08;384.90;2329.60
26272;DHT22;13997;48.902;12.472;2023-10-13T07:48:38;409.60;2355.20
26272;DHT22;13997;48.902;12.472;2023-10-13T07:51:09;409.80;2355.20
26272;DHT22;13997;48.902;12.472;2023-10-13T07:53:48;409.80;2355.20
26272;DHT22;13997;48.902;12.472;2023-10-13T07:56:18;409.90;2355.20
26272;DHT22;13997;48.902;12.472;2023-10-13T07:58:45;410.10;2355.20
26272;DHT22;13997;48.902;12.472;2023-10-13T08:01:26;410.20;2355.20
26272;DHT22;13997;48.902;12.472;2023-10-13T08:03:52;410.40;2355.20
26272;DHT22;13997;48.902;12.472;2023-10-13T08:06:37;410.50;2355.20
26272;DHT22;13997;48.902;12.472;2023-10-13T08:09:03;435.30;2355.20
26272;DHT22;13997;48.902;12.472;2023-10-13T08:11:35;435.40;2355.20
26272;DHT22;13997;48.902;12.472;2023-10-13T08:14:03;435.60;2355.20
26272;DHT22;13997;48.902;12.472;2023-10-13T08:16:41;435.80;2355.20
26272;DHT22;13997;48.902;12.472;2023-10-13T08:19:15;436.00;2355.20
26272;DHT22;13997;48.902;12.472;2023-10-13T08:21:48;436.10;2355.20
26272;DHT22;13997;48.902;12.472;2023-10-13T08:24:41;460.90;2380.80
26272;DHT22;13997;48.902;12.472;2023-10-13T08:27:07;461.00;2380.80
26272;DHT22;13997;48.902;12.472;2023-10-13T08:29:52;461.10;2380.80
26272;DHT22;13997;48.902;12.472;2023-10-13T08:32:24;461.20;2380.80
26272;DHT22;13997;48.902;12.472;2023-10-13T08:34:53;461.30;2380.80
26272;DHT22;13997;48.902;12.472;2023-10-13T08:37:20;461.40;2380.80
26272;DHT22;13997;48.902;12.472;2023-10-13T08:39:50;461.50;2380.80
26272;DHT22;13997;48.902;12.472;2023-10-13T08:42:34;461.60;2380.80
26272;DHT22;13997;48.902;12.472;2023-10-13T08:45:18;461.70;2380.80
26272;DHT22;13997;48.902;12.472;2023-10-13T08:48:00;461.70;2380.80
26272;DHT22;13997;48.902;12.472;2023-10-13T08:50:45;486.40;2380.80
26272;DHT22;13997;48.902;12.472;2023-10-13T08:53:27;486.50;2380.80
26272;DHT22;13997;48.902;12.472;2023-10-13T08:56:12;486.60;2380.80
26272;DHT22;13997;48.902;12.472;2023-10-13T08:58:46;486.70;2380.80
26272;DHT22;13997;48.902;12.472;2023-10-13T09:01:24;486.80;2380.80
26272;DHT22;13997;48.902;12.472;2023-10-13T09:04:07;486.80;2380.80
26272;DHT22;13997;48.902;12.472;2023-10-13T09:07:08;486.90;2380.80
26272;DHT22;13997;48.902;12.472;2023-10-13T09:12:20;487.00;2380.80
26272;DHT22;13997;48.902;12.472;2023-10-13T09:14:55;487.20;2380.80
26272;DHT22;13997;48.902;12.472;2023-10-13T09:17:29;487.30;2380.80
26272;DHT22;13997;48.902;12.472;2023-10-13T09:20:03;512.00;2380.80
26272;DHT22;13997;48.902;12.472;2023-10-13T09:22:48;512.10;2380.80
26272;DHT22;13997;48.902;12.472;2023-10-13T09:25:28;512.10;2380.80
26272;DHT22;13997;48.902;12.472;2023-10-13T09:28:10;512.20;2380.80
26272;DHT22;13997;48.902;12.472;2023-10-13T09:30:47;512.30;2380.80
26272;DHT22;13997;48.902;12.472;2023-10-13T09:33:13;512.50;2380.80
26272;DHT22;13997;48.902;12.472;2023-10-13T09:35:44;512.60;2380.80
26272;DHT22;13997;48.902;12.472;2023-10-13T09:38:19;512.70;2380.80
26272;DHT22;13997;48.902;12.472;2023-10-13T09:40:46;512.80;2380.80
26272;DHT22;13997;48.902;12.472;2023-10-13T09:43:18;512.90;2380.80
26272;DHT22;13997;48.902;12.472;2023-10-13T09:45:48;512.90;2380.80
26272;DHT22;13997;48.902;12.472;2023-10-13T09:48:35;537.60;2406.40
26272;DHT22;13997;48.902;12.472;2023-10-13T09:51:03;537.70;2406.40
26272;DHT22;13997;48.902;12.472;2023-10-13T09:53:31;537.90;2406.40
26272;DHT22;13997;48.902;12.472;2023-10-13T09:56:07;538.00;2406.40
26272;DHT22;13997;48.902;12.472;2023-10-13T09:59:01;538.00;2406.40
26272;DHT22;13997;48.902;12.472;2023-10-13T10:01:40;538.20;2406.40
26272;DHT22;13997;48.902;12.472;2023-10-13T10:04:10;538.30;2406.40
26272;DHT22;13997;48.902;12.472;2023-10-13T10:06:58;538.50;2406.40
26272;DHT22;13997;48.902;12.472;2023-10-13T10:09:32;538.40;2406.40
26272;DHT22;13997;48.902;12.472;2023-10-13T10:12:24;538.50;2406.40
26272;DHT22;13997;48.902;12.472;2023-10-13T10:15:12;563.20;2432.00
26272;DHT22;13997;48.902;12.472;2023-10-13T10:17:50;563.30;2432.00
26272;DHT22;13997;48.902;12.472;2023-10-13T10:20:34;563.40;2432.00
26272;DHT22;13997;48.902;12.472;2023-10-13T10:23:07;563.50;2432.00
26272;DHT22;13997;48.902;12.472;2023-10-13T10:25:38;563.60;2432.00
26272;DHT22;13997;48.902;12.472;2023-10-13T10:28:07;563.70;2432.00
26272;DHT22;13997;48.902;12.472;2023-10-13T10:30:35;563.80;2432.00
26272;DHT22;13997;48.902;12.472;2023-10-13T10:33:04;563.70;2432.00
26272;DHT22;13997;48.902;12.472;2023-10-13T10:35:38;563.80;2432.00
26272;DHT22;13997;48.902;12.472;2023-10-13T10:38:11;563.90;2432.00
26272;DHT22;13997;48.902;12.472;2023-10-13T10:40:53;563.90;2432.00
26272;DHT22;13997;48.902;12.472;2023-10-13T10:43:35;588.80;2432.00
26272;DHT22;13997;48.902;12.472;2023-10-13T10:46:18;588.90;2432.00
26272;DHT22;13997;48.902;12.472;2023-10-13T10:48:50;588.90;2432.00
26272;DHT22;13997;48.902;12.472;2023-10-13T10:51:22;589.00;2432.00
26272;DHT22;13997;48.902;12.472;2023-10-13T10:53:49;589.10;2432.00
26272;DHT22;13997;48.902;12.472;2023-10-13T10:56:17;589.10;2432.00
26272;DHT22;13997;48.902;12.472;2023-10-13T10:58:47;589.20;2432.00
26272;DHT22;13997;48.902;12.472;2023-10-13T11:01:13;589.30;2432.00
26272;DHT22;13997;48.902;12.472;2023-10-13T11:03:56;589.30;2432.00
26272;DHT22;13997;48.902;12.472;2023-10-13T11:06:29;589.30;2432.00
26272;DHT22;13997;48.902;12.472;2023-10-13T11:09:06;589.30;2432.00
26272;DHT22;13997;48.902;12.472;2023-10-13T11:11:56;589.20;2432.00
26272;DHT22;13997;48.902;12.472;2023-10-13T11:14:29;589.20;2432.00
26272;DHT22;13997;48.902;12.472;2023-10-13T11:16:56;589.20;2432.00
26272;DHT22;13997;48.902;12.472;2023-10-13T11:19:43;589.30;2432.00
26272;DHT22;13997;48.902;12.472;2023-10-13T11:22:12;589.30;2432.00
26272;DHT22;13997;48.902;12.472;2023-10-13T11:25:01;589.30;2432.00
26272;DHT22;13997;48.902;12.472;2023-10-13T11:27:41;589.50;2432.00
26272;DHT22;13997;48.902;12.472;2023-10-13T11:30:19;589.50;2432.00
26272;DHT22;13997;48.902;12.472;2023-10-13T11:35:32;589.50;2432.00
26272;DHT22;13997;48.902;12.472;2023-10-13T11:38:16;589.50;2432.00
26272;DHT22;13997;48.902;12.472;2023-10-13T11:43:46;589.50;2432.00
26272;DHT22;13997;48.902;12.472;2023-10-13T11:46:16;589.60;2432.00
26272;DHT22;13997;48.902;12.472;2023-10-13T11:48:45;589.60;2432.00
26272;DHT22;13997;48.902;12.472;2023-10-13T11:51:13;589.60;2432.00
26272;DHT22;13997;48.902;12.472;2023-10-13T11:53:58;589.70;2432.00
26272;DHT22;13997;48.902;12.472;2023-10-13T11:56:24;589.70;2432.00
26272;DHT22;13997;48.902;12.472;2023-10-13T11:58:51;614.50;2432.00
26272;DHT22;13997;48.902;12.472;2023-10-13T12:01:17;614.50;2432.00
26272;DHT22;13997;48.902;12.472;2023-10-13T12:03:48;614.60;2432.00
26272;DHT22;13997;48.902;12.472;2023-10-13T12:06:33;614.60;2432.00
26272;DHT22;13997;48.902;12.472;2023-10-13T12:09:06;614.80;2432.00
26272;DHT22;13997;48.902;12.472;2023-10-13T12:11:44;614.80;2432.00
26272;DHT22;13997;48.902;12.472;2023-10-13T12:14:17;614.90;2432.00
26272;DHT22;13997;48.902;12.472;2023-10-13T12:16:48;614.90;2432.00
26272;DHT22;13997;48.902;12.472;2023-10-13T12:19:22;614.90;2432.00
26272;DHT22;13997;48.902;12.472;2023-10-13T12:21:56;615.00;2432.00
26272;DHT22;13997;48.902;12.472;2023-10-13T12:24:27;615.00;2432.00
26272;DHT22;13997;48.902;12.472;2023-10-13T12:26:58;615.00;2432.00
26272;DHT22;13997;48.902;12.472;2023-10-13T12:29:24;615.00;2432.00
26272;DHT22;13997;48.902;12.472;2023-10-13T12:31:54;615.00;2432.00
26272;DHT22;13997;48.902;12.472;2023-10-13T12:34:38;615.10;2432.00
26272;DHT22;13997;48.902;12.472;2023-10-13T12:37:32;615.20;2432.00
26272;DHT22;13997;48.902;12.472;2023-10-13T12:42:51;615.20;2432.00
26272;DHT22;13997;48.902;12.472;2023-10-13T12:45:39;615.30;2432.00
26272;DHT22;13997;48.902;12.472;2023-10-13T12:48:24;615.20;2432.00
26272;DHT22;13997;48.902;12.472;2023-10-13T12:51:08;615.30;2432.00
26272;DHT22;13997;48.902;12.472;2023-10-13T12:54:07;615.30;2432.00
26272;DHT22;13997;48.902;12.472;2023-10-13T12:57:00;615.30;2432.00
26272;DHT22;13997;48.902;12.472;2023-10-13T12:59:26;615.20;2432.00
26272;DHT22;13997;48.902;12.472;2023-10-13T13:01:53;615.20;2432.00
26272;DHT22;13997;48.902;12.472;2023-10-13T13:04:19;615.30;2432.00
26272;DHT22;13997;48.902;12.472;2023-10-13T13:06:48;640.00;2432.00
26272;DHT22;13997;48.902;12.472;2023-10-13T13:09:13;615.30;2432.00
26272;DHT22;13997;48.902;12.472;2023-10-13T13:11:39;615.20;2432.00
26272;DHT22;13997;48.902;12.472;2023-10-13T13:14:07;615.10;2432.00
26272;DHT22;13997;48.902;12.472;2023-10-13T13:16:34;615.20;2432.00
26272;DHT22;13997;48.902;12.472;2023-10-13T13:19:00;615.20;2432.00
26272;DHT22;13997;48.902;12.472;2023-10-13T13:21:38;615.20;2432.00
26272;DHT22;13997;48.902;12.472;2023-10-13T13:24:05;615.20;2432.00
26272;DHT22;13997;48.902;12.472;2023-10-13T13:26:37;615.20;2432.00
26272;DHT22;13997;48.902;12.472;2023-10-13T13:29:06;615.20;2432.00
26272;DHT22;13997;48.902;12.472;2023-10-13T13:31:34;615.20;2432.00
26272;DHT22;13997;48.902;12.472;2023-10-13T13:34:07;615.30;2432.00
26272;DHT22;13997;48.902;12.472;2023-10-13T13:36:34;615.30;2432.00
26272;DHT22;13997;48.902;12.472;2023-10-13T13:39:00;615.30;2432.00
26272;DHT22;13997;48.902;12.472;2023-10-13T13:41:26;615.30;2432.00
26272;DHT22;13997;48.902;12.472;2023-10-13T13:43:53;615.20;2432.00
26272;DHT22;13997;48.902;12.472;2023-10-13T13:46:24;615.20;2432.00
26272;DHT22;13997;48.902;12.472;2023-10-13T13:48:55;615.20;2432.00
26272;DHT22;13997;48.902;12.472;2023-10-13T13:51:25;615.30;2432.00
26272;DHT22;13997;48.902;12.472;2023-10-13T13:53:58;615.30;2432.00
26272;DHT22;13997;48.902;12.472;2023-10-13T13:56:24;615.20;2432.00
26272;DHT22;13997;48.902;12.472;2023-10-13T13:58:54;615.20;2432.00
26272;DHT22;13997;48.902;12.472;2023-10-13T14:01:21;615.20;2432.00
26272;DHT22;13997;48.902;12.472;2023-10-13T14:03:49;615.20;2432.00
26272;DHT22;13997;48.902;12.472;2023-10-13T14:06:19;615.20;2432.00
26272;DHT22;13997;48.902;12.472;2023-10-13T14:08:57;615.20;2432.00
26272;DHT22;13997;48.902;12.472;2023-10-13T14:11:27;615.20;2432.00
26272;DHT22;13997;48.902;12.472;2023-10-13T14:14:13;615.20;2432.00
26272;DHT22;13997;48.902;12.472;2023-10-13T14:16:40;615.10;2432.00
26272;DHT22;13997;48.902;12.472;2023-10-13T14:19:13;615.10;2432.00
26272;DHT22;13997;48.902;12.472;2023-10-13T14:21:52;615.10;2432.00
26272;DHT22;13997;48.902;12.472;2023-10-13T14:24:21;615.00;2432.00
26272;DHT22;13997;48.902;12.472;2023-10-13T14:27:03;615.00;2432.00
26272;DHT22;13997;48.902;12.472;2023-10-13T14:29:40;615.00;2432.00
26272;DHT22;13997;48.902;12.472;2023-10-13T14:32:08;615.00;2432.00
26272;DHT22;13997;48.902;12.472;2023-10-13T14:34:45;615.00;2432.00
26272;DHT22;13997;48.902;12.472;2023-10-13T14:37:12;615.00;2432.00
26272;DHT22;13997;48.902;12.472;2023-10-13T14:39:39;615.10;2432.00
26272;DHT22;13997;48.902;12.472;2023-10-13T14:42:05;615.10;2432.00
26272;DHT22;13997;48.902;12.472;2023-10-13T14:44:32;615.10;2432.00
26272;DHT22;13997;48.902;12.472;2023-10-13T14:46:58;615.10;2432.00
26272;DHT22;13997;48.902;12.472;2023-10-13T14:49:23;615.20;2432.00
26272;DHT22;13997;48.902;12.472;2023-10-13T14:51:49;615.20;2432.00
26272;DHT22;13997;48.902;12.472;2023-10-13T14:54:15;615.20;2432.00
26272;DHT22;13997;48.902;12.472;2023-10-13T14:56:41;615.10;2432.00
26272;DHT22;13997;48.902;12.472;2023-10-13T14:59:08;615.10;2432.00
26272;DHT22;13997;48.902;12.472;2023-10-13T15:01:40;615.10;2432.00
26272;DHT22;13997;48.902;12.472;2023-10-13T15:04:06;615.10;2432.00
26272;DHT22;13997;48.902;12.472;2023-10-13T15:06:31;615.00;2432.00
26272;DHT22;13997;48.902;12.472;2023-10-13T15:08:58;615.00;2432.00
26272;DHT22;13997;48.902;12.472;2023-10-13T15:11:26;615.00;2432.00
26272;DHT22;13997;48.902;12.472;2023-10-13T15:13:55;614.90;2432.00
26272;DHT22;13997;48.902;12.472;2023-10-13T15:16:23;614.80;2432.00
26272;DHT22;13997;48.902;12.472;2023-10-13T15:18:50;614.70;2432.00
26272;DHT22;13997;48.902;12.472;2023-10-13T15:23:47;614.50;2432.00
26272;DHT22;13997;48.902;12.472;2023-10-13T15:26:12;614.40;2432.00
26272;DHT22;13997;48.902;12.472;2023-10-13T15:28:40;589.70;2432.00
26272;DHT22;13997;48.902;12.472;2023-10-13T15:31:18;589.60;2432.00
26272;DHT22;13997;48.902;12.472;2023-10-13T15:34:04;589.40;2432.00
26272;DHT22;13997;48.902;12.472;2023-10-13T15:36:35;589.30;2432.00